sensor_id;sensor_type;location;lat;lon;timestamp;P1;durP1;ratioP1;P2;durP2;ratioP2
6791;SDS011;3433;48.730;9.108;2022-11-20T00:01:26;5.27;;;3.60;;
6791;SDS011;3433;48.730;9.108;2022-11-20T00:03:57;5.70;;;4.07;;
6791;SDS011;3433;48.730;9.108;2022-11-20T00:06:25;5.10;;;4.40;;
6791;SDS011;3433;48.730;9.108;2022-11-20T00:08:53;6.03;;;4.53;;
6791;SDS011;3433;48.730;9.108;2022-11-20T00:11:23;10.27;;;4.40;;
6791;SDS011;3433;48.730;9.108;2022-11-20T00:13:52;7.30;;;4.27;;
6791;SDS011;3433;48.730;9.108;2022-11-20T00:16:20;4.93;;;4.17;;
6791;SDS011;3433;48.730;9.108;2022-11-20T00:18:49;4.07;;;3.67;;
6791;SDS011;3433;48.730;9.108;2022-11-20T00:21:16;5.20;;;4.47;;
6791;SDS011;3433;48.730;9.108;2022-11-20T00:23:44;5.70;;;4.00;;
6791;SDS011;3433;48.730;9.108;2022-11-20T00:26:12;5.80;;;4.07;;
6791;SDS011;3433;48.730;9.108;2022-11-20T00:28:41;3.77;;;3.37;;
6791;SDS011;3433;48.730;9.108;2022-11-20T00:31:10;6.80;;;4.00;;
6791;SDS011;3433;48.730;9.108;2022-11-20T00:33:39;4.40;;;3.57;;
6791;SDS011;3433;48.730;9.108;2022-11-20T00:36:07;7.00;;;3.70;;
6791;SDS011;3433;48.730;9.108;2022-11-20T00:38:35;6.90;;;3.97;;
6791;SDS011;3433;48.730;9.108;2022-11-20T00:41:03;4.80;;;3.90;;
6791;SDS011;3433;48.730;9.108;2022-11-20T00:43:31;5.73;;;4.60;;
6791;SDS011;3433;48.730;9.108;2022-11-20T00:46:01;5.43;;;3.67;;
6791;SDS011;3433;48.730;9.108;2022-11-20T00:48:29;4.40;;;3.60;;
6791;SDS011;3433;48.730;9.108;2022-11-20T00:50:57;8.33;;;4.07;;
6791;SDS011;3433;48.730;9.108;2022-11-20T00:53:24;3.87;;;3.40;;
6791;SDS011;3433;48.730;9.108;2022-11-20T00:55:53;4.43;;;3.10;;
6791;SDS011;3433;48.730;9.108;2022-11-20T00:58:20;5.73;;;3.77;;
6791;SDS011;3433;48.730;9.108;2022-11-20T01:00:48;5.00;;;3.90;;
6791;SDS011;3433;48.730;9.108;2022-11-20T01:03:17;5.60;;;4.07;;
6791;SDS011;3433;48.730;9.108;2022-11-20T01:05:44;7.00;;;4.40;;
6791;SDS011;3433;48.730;9.108;2022-11-20T01:08:11;4.90;;;3.60;;
6791;SDS011;3433;48.730;9.108;2022-11-20T01:10:38;5.20;;;4.00;;
6791;SDS011;3433;48.730;9.108;2022-11-20T01:13:05;4.77;;;3.80;;
6791;SDS011;3433;48.730;9.108;2022-11-20T01:15:49;4.87;;;3.43;;
6791;SDS011;3433;48.730;9.108;2022-11-20T01:18:17;5.77;;;4.03;;
6791;SDS011;3433;48.730;9.108;2022-11-20T01:20:44;6.43;;;3.97;;
6791;SDS011;3433;48.730;9.108;2022-11-20T01:23:11;4.03;;;3.20;;
6791;SDS011;3433;48.730;9.108;2022-11-20T01:25:38;6.93;;;3.50;;
6791;SDS011;3433;48.730;9.108;2022-11-20T01:28:05;4.70;;;3.60;;
6791;SDS011;3433;48.730;9.108;2022-11-20T01:30:32;5.60;;;3.77;;
6791;SDS011;3433;48.730;9.108;2022-11-20T01:32:59;4.40;;;4.00;;
6791;SDS011;3433;48.730;9.108;2022-11-20T01:35:27;4.63;;;3.10;;
6791;SDS011;3433;48.730;9.108;2022-11-20T01:37:57;5.80;;;3.87;;
6791;SDS011;3433;48.730;9.108;2022-11-20T01:40:24;4.60;;;3.80;;
6791;SDS011;3433;48.730;9.108;2022-11-20T01:42:52;4.17;;;3.60;;
6791;SDS011;3433;48.730;9.108;2022-11-20T01:48:42;4.73;;;3.37;;
6791;SDS011;3433;48.730;9.108;2022-11-20T01:51:19;4.10;;;3.50;;
6791;SDS011;3433;48.730;9.108;2022-11-20T01:53:49;5.33;;;3.17;;
6791;SDS011;3433;48.730;9.108;2022-11-20T01:56:19;5.40;;;3.43;;
6791;SDS011;3433;48.730;9.108;2022-11-20T01:58:48;4.57;;;3.63;;
6791;SDS011;3433;48.730;9.108;2022-11-20T02:01:18;4.90;;;4.40;;
6791;SDS011;3433;48.730;9.108;2022-11-20T02:03:45;9.63;;;3.53;;
6791;SDS011;3433;48.730;9.108;2022-11-20T02:06:14;6.07;;;4.10;;
6791;SDS011;3433;48.730;9.108;2022-11-20T02:08:49;5.60;;;4.10;;
6791;SDS011;3433;48.730;9.108;2022-11-20T02:11:16;4.30;;;3.53;;
6791;SDS011;3433;48.730;9.108;2022-11-20T02:13:43;5.53;;;3.90;;
6791;SDS011;3433;48.730;9.108;2022-11-20T02:16:11;5.80;;;3.30;;
6791;SDS011;3433;48.730;9.108;2022-11-20T02:18:41;4.57;;;3.50;;
6791;SDS011;3433;48.730;9.108;2022-11-20T02:21:10;4.40;;;3.30;;
6791;SDS011;3433;48.730;9.108;2022-11-20T02:24:00;5.63;;;3.53;;
6791;SDS011;3433;48.730;9.108;2022-11-20T02:26:33;4.67;;;3.40;;
6791;SDS011;3433;48.730;9.108;2022-11-20T02:29:03;7.83;;;3.00;;
6791;SDS011;3433;48.730;9.108;2022-11-20T02:31:35;5.20;;;3.00;;
6791;SDS011;3433;48.730;9.108;2022-11-20T02:34:06;4.03;;;3.37;;
6791;SDS011;3433;48.730;9.108;2022-11-20T02:36:33;6.13;;;3.37;;
6791;SDS011;3433;48.730;9.108;2022-11-20T02:39:04;5.67;;;3.57;;
6791;SDS011;3433;48.730;9.108;2022-11-20T02:41:32;4.80;;;3.37;;
6791;SDS011;3433;48.730;9.108;2022-11-20T02:44:00;3.40;;;3.10;;
6791;SDS011;3433;48.730;9.108;2022-11-20T02:46:28;4.90;;;3.40;;
6791;SDS011;3433;48.730;9.108;2022-11-20T02:48:56;3.63;;;2.90;;
6791;SDS011;3433;48.730;9.108;2022-11-20T02:51:23;4.87;;;3.40;;
6791;SDS011;3433;48.730;9.108;2022-11-20T02:53:49;3.53;;;3.00;;
6791;SDS011;3433;48.730;9.108;2022-11-20T02:56:18;5.80;;;3.90;;
6791;SDS011;3433;48.730;9.108;2022-11-20T02:58:45;3.40;;;3.10;;
6791;SDS011;3433;48.730;9.108;2022-11-20T03:01:12;5.43;;;3.40;;
6791;SDS011;3433;48.730;9.108;2022-11-20T03:03:39;3.90;;;3.20;;
6791;SDS011;3433;48.730;9.108;2022-11-20T03:06:06;4.43;;;4.03;;
6791;SDS011;3433;48.730;9.108;2022-11-20T03:08:33;5.73;;;3.40;;
6791;SDS011;3433;48.730;9.108;2022-11-20T03:11:04;9.33;;;4.30;;
6791;SDS011;3433;48.730;9.108;2022-11-20T03:13:33;4.67;;;3.83;;
6791;SDS011;3433;48.730;9.108;2022-11-20T03:16:07;3.90;;;3.50;;
6791;SDS011;3433;48.730;9.108;2022-11-20T03:18:36;6.10;;;4.20;;
6791;SDS011;3433;48.730;9.108;2022-11-20T03:21:04;5.10;;;4.10;;
6791;SDS011;3433;48.730;9.108;2022-11-20T03:23:31;4.90;;;4.10;;
6791;SDS011;3433;48.730;9.108;2022-11-20T03:26:09;5.63;;;3.60;;
6791;SDS011;3433;48.730;9.108;2022-11-20T03:28:38;6.67;;;4.03;;
6791;SDS011;3433;48.730;9.108;2022-11-20T03:31:06;6.20;;;4.37;;
6791;SDS011;3433;48.730;9.108;2022-11-20T03:33:35;4.90;;;4.40;;
6791;SDS011;3433;48.730;9.108;2022-11-20T03:36:04;5.67;;;3.80;;
6791;SDS011;3433;48.730;9.108;2022-11-20T03:38:32;8.13;;;4.43;;
6791;SDS011;3433;48.730;9.108;2022-11-20T03:41:00;9.73;;;4.60;;
6791;SDS011;3433;48.730;9.108;2022-11-20T03:43:28;5.97;;;4.10;;
6791;SDS011;3433;48.730;9.108;2022-11-20T03:45:57;6.63;;;4.43;;
6791;SDS011;3433;48.730;9.108;2022-11-20T03:48:24;5.60;;;4.27;;
6791;SDS011;3433;48.730;9.108;2022-11-20T03:50:51;6.67;;;4.40;;
6791;SDS011;3433;48.730;9.108;2022-11-20T03:53:18;5.03;;;4.53;;
6791;SDS011;3433;48.730;9.108;2022-11-20T03:55:49;6.90;;;4.67;;
6791;SDS011;3433;48.730;9.108;2022-11-20T03:58:17;6.50;;;5.00;;
6791;SDS011;3433;48.730;9.108;2022-11-20T04:00:44;5.00;;;4.30;;
6791;SDS011;3433;48.730;9.108;2022-11-20T04:03:12;10.63;;;5.60;;
6791;SDS011;3433;48.730;9.108;2022-11-20T04:05:39;5.20;;;4.10;;
6791;SDS011;3433;48.730;9.108;2022-11-20T04:08:06;6.73;;;4.93;;
6791;SDS011;3433;48.730;9.108;2022-11-20T04:10:33;8.50;;;4.77;;
6791;SDS011;3433;48.730;9.108;2022-11-20T04:13:00;5.47;;;4.23;;
6791;SDS011;3433;48.730;9.108;2022-11-20T04:15:26;6.73;;;5.00;;
6791;SDS011;3433;48.730;9.108;2022-11-20T04:17:54;6.23;;;4.10;;
6791;SDS011;3433;48.730;9.108;2022-11-20T04:20:22;5.70;;;4.33;;
6791;SDS011;3433;48.730;9.108;2022-11-20T04:22:49;6.20;;;4.53;;
6791;SDS011;3433;48.730;9.108;2022-11-20T04:25:19;5.23;;;4.37;;
6791;SDS011;3433;48.730;9.108;2022-11-20T04:27:46;5.20;;;4.03;;
6791;SDS011;3433;48.730;9.108;2022-11-20T04:30:13;5.07;;;4.10;;
6791;SDS011;3433;48.730;9.108;2022-11-20T04:32:40;5.73;;;4.40;;
6791;SDS011;3433;48.730;9.108;2022-11-20T04:35:07;5.83;;;4.77;;
6791;SDS011;3433;48.730;9.108;2022-11-20T04:37:36;5.40;;;3.90;;
6791;SDS011;3433;48.730;9.108;2022-11-20T04:40:03;6.43;;;4.10;;
6791;SDS011;3433;48.730;9.108;2022-11-20T04:42:30;5.20;;;4.27;;
6791;SDS011;3433;48.730;9.108;2022-11-20T04:44:57;4.20;;;3.73;;
6791;SDS011;3433;48.730;9.108;2022-11-20T04:47:24;5.73;;;4.27;;
6791;SDS011;3433;48.730;9.108;2022-11-20T04:49:51;5.97;;;4.57;;
6791;SDS011;3433;48.730;9.108;2022-11-20T04:52:18;5.40;;;4.70;;
6791;SDS011;3433;48.730;9.108;2022-11-20T04:54:47;5.43;;;3.73;;
6791;SDS011;3433;48.730;9.108;2022-11-20T04:57:14;5.57;;;4.37;;
6791;SDS011;3433;48.730;9.108;2022-11-20T04:59:41;5.00;;;4.03;;
6791;SDS011;3433;48.730;9.108;2022-11-20T05:02:08;7.13;;;4.90;;
6791;SDS011;3433;48.730;9.108;2022-11-20T05:04:36;5.03;;;4.07;;
6791;SDS011;3433;48.730;9.108;2022-11-20T05:07:03;4.40;;;4.00;;
6791;SDS011;3433;48.730;9.108;2022-11-20T05:09:30;7.43;;;3.80;;
6791;SDS011;3433;48.730;9.108;2022-11-20T05:11:58;4.20;;;3.77;;
6791;SDS011;3433;48.730;9.108;2022-11-20T05:14:25;4.90;;;3.80;;
6791;SDS011;3433;48.730;9.108;2022-11-20T05:16:52;4.33;;;3.60;;
6791;SDS011;3433;48.730;9.108;2022-11-20T05:19:19;9.37;;;4.57;;
6791;SDS011;3433;48.730;9.108;2022-11-20T05:22:06;7.20;;;5.40;;
6791;SDS011;3433;48.730;9.108;2022-11-20T05:24:54;7.10;;;4.43;;
6791;SDS011;3433;48.730;9.108;2022-11-20T05:27:22;5.40;;;3.57;;
6791;SDS011;3433;48.730;9.108;2022-11-20T05:29:49;3.90;;;3.50;;
6791;SDS011;3433;48.730;9.108;2022-11-20T05:32:16;5.47;;;4.00;;
6791;SDS011;3433;48.730;9.108;2022-11-20T05:34:43;5.03;;;3.63;;
6791;SDS011;3433;48.730;9.108;2022-11-20T05:37:13;3.90;;;3.57;;
6791;SDS011;3433;48.730;9.108;2022-11-20T05:39:42;4.97;;;3.23;;
6791;SDS011;3433;48.730;9.108;2022-11-20T05:42:09;5.40;;;3.50;;
6791;SDS011;3433;48.730;9.108;2022-11-20T05:45:00;5.90;;;3.30;;
6791;SDS011;3433;48.730;9.108;2022-11-20T05:47:38;5.40;;;4.10;;
6791;SDS011;3433;48.730;9.108;2022-11-20T05:50:05;3.90;;;3.17;;
6791;SDS011;3433;48.730;9.108;2022-11-20T05:52:33;6.27;;;3.73;;
6791;SDS011;3433;48.730;9.108;2022-11-20T05:54:59;4.27;;;3.50;;
6791;SDS011;3433;48.730;9.108;2022-11-20T05:57:26;4.37;;;3.50;;
6791;SDS011;3433;48.730;9.108;2022-11-20T05:59:53;4.70;;;3.17;;
6791;SDS011;3433;48.730;9.108;2022-11-20T06:02:22;3.77;;;3.40;;
6791;SDS011;3433;48.730;9.108;2022-11-20T06:04:49;5.40;;;3.60;;
6791;SDS011;3433;48.730;9.108;2022-11-20T06:07:16;4.87;;;3.40;;
6791;SDS011;3433;48.730;9.108;2022-11-20T06:09:42;3.97;;;3.20;;
6791;SDS011;3433;48.730;9.108;2022-11-20T06:12:09;3.70;;;3.13;;
6791;SDS011;3433;48.730;9.108;2022-11-20T06:14:36;5.00;;;3.60;;
6791;SDS011;3433;48.730;9.108;2022-11-20T06:17:03;3.03;;;2.73;;
6791;SDS011;3433;48.730;9.108;2022-11-20T06:19:32;6.60;;;3.53;;
6791;SDS011;3433;48.730;9.108;2022-11-20T06:21:59;6.50;;;3.33;;
6791;SDS011;3433;48.730;9.108;2022-11-20T06:24:27;5.50;;;3.13;;
6791;SDS011;3433;48.730;9.108;2022-11-20T06:26:54;3.53;;;3.23;;
6791;SDS011;3433;48.730;9.108;2022-11-20T06:29:21;7.40;;;3.30;;
6791;SDS011;3433;48.730;9.108;2022-11-20T06:31:48;11.53;;;3.40;;
6791;SDS011;3433;48.730;9.108;2022-11-20T06:34:15;3.70;;;3.00;;
6791;SDS011;3433;48.730;9.108;2022-11-20T06:36:43;4.17;;;2.77;;
6791;SDS011;3433;48.730;9.108;2022-11-20T06:39:10;6.50;;;3.10;;
6791;SDS011;3433;48.730;9.108;2022-11-20T06:41:37;5.67;;;3.47;;
6791;SDS011;3433;48.730;9.108;2022-11-20T06:44:05;3.70;;;2.83;;
6791;SDS011;3433;48.730;9.108;2022-11-20T06:46:32;4.37;;;3.80;;
6791;SDS011;3433;48.730;9.108;2022-11-20T06:48:59;4.80;;;4.00;;
6791;SDS011;3433;48.730;9.108;2022-11-20T06:51:26;4.70;;;3.63;;
6791;SDS011;3433;48.730;9.108;2022-11-20T06:53:54;3.50;;;3.20;;
6791;SDS011;3433;48.730;9.108;2022-11-20T06:56:21;3.40;;;2.73;;
6791;SDS011;3433;48.730;9.108;2022-11-20T06:58:48;4.23;;;3.60;;
6791;SDS011;3433;48.730;9.108;2022-11-20T07:01:15;3.83;;;3.30;;
6791;SDS011;3433;48.730;9.108;2022-11-20T07:03:42;4.90;;;3.40;;
6791;SDS011;3433;48.730;9.108;2022-11-20T07:06:09;3.40;;;3.10;;
6791;SDS011;3433;48.730;9.108;2022-11-20T07:08:36;4.13;;;3.50;;
6791;SDS011;3433;48.730;9.108;2022-11-20T07:11:05;4.73;;;3.40;;
6791;SDS011;3433;48.730;9.108;2022-11-20T07:13:33;4.10;;;3.30;;
6791;SDS011;3433;48.730;9.108;2022-11-20T07:16:00;3.13;;;2.67;;
6791;SDS011;3433;48.730;9.108;2022-11-20T07:18:29;3.97;;;3.10;;
6791;SDS011;3433;48.730;9.108;2022-11-20T07:20:59;3.47;;;3.00;;
6791;SDS011;3433;48.730;9.108;2022-11-20T07:23:26;6.00;;;3.27;;
6791;SDS011;3433;48.730;9.108;2022-11-20T07:25:53;3.97;;;2.83;;
6791;SDS011;3433;48.730;9.108;2022-11-20T07:28:21;6.23;;;2.90;;
6791;SDS011;3433;48.730;9.108;2022-11-20T07:30:49;3.07;;;2.77;;
6791;SDS011;3433;48.730;9.108;2022-11-20T07:33:16;4.33;;;2.70;;
6791;SDS011;3433;48.730;9.108;2022-11-20T07:35:43;3.30;;;2.73;;
6791;SDS011;3433;48.730;9.108;2022-11-20T07:38:11;2.70;;;2.30;;
6791;SDS011;3433;48.730;9.108;2022-11-20T07:40:38;3.47;;;2.50;;
6791;SDS011;3433;48.730;9.108;2022-11-20T07:43:05;4.00;;;2.60;;
6791;SDS011;3433;48.730;9.108;2022-11-20T07:45:33;3.90;;;2.83;;
6791;SDS011;3433;48.730;9.108;2022-11-20T07:48:00;3.87;;;2.60;;
6791;SDS011;3433;48.730;9.108;2022-11-20T07:50:27;3.50;;;2.87;;
6791;SDS011;3433;48.730;9.108;2022-11-20T07:52:59;2.57;;;2.37;;
6791;SDS011;3433;48.730;9.108;2022-11-20T07:55:27;3.03;;;2.60;;
6791;SDS011;3433;48.730;9.108;2022-11-20T07:57:57;3.00;;;2.70;;
6791;SDS011;3433;48.730;9.108;2022-11-20T08:00:24;5.80;;;2.70;;
6791;SDS011;3433;48.730;9.108;2022-11-20T08:02:53;4.20;;;2.70;;
6791;SDS011;3433;48.730;9.108;2022-11-20T08:05:20;3.57;;;2.40;;
6791;SDS011;3433;48.730;9.108;2022-11-20T08:07:47;5.03;;;2.20;;
6791;SDS011;3433;48.730;9.108;2022-11-20T08:10:14;3.53;;;2.43;;
6791;SDS011;3433;48.730;9.108;2022-11-20T08:12:45;2.97;;;2.23;;
6791;SDS011;3433;48.730;9.108;2022-11-20T08:15:30;4.07;;;2.30;;
6791;SDS011;3433;48.730;9.108;2022-11-20T08:18:02;2.23;;;2.10;;
6791;SDS011;3433;48.730;9.108;2022-11-20T08:20:31;2.33;;;2.13;;
6791;SDS011;3433;48.730;9.108;2022-11-20T08:22:59;3.20;;;2.30;;
6791;SDS011;3433;48.730;9.108;2022-11-20T08:25:27;2.17;;;2.07;;
6791;SDS011;3433;48.730;9.108;2022-11-20T08:27:57;5.03;;;3.43;;
6791;SDS011;3433;48.730;9.108;2022-11-20T08:30:25;3.67;;;2.50;;
6791;SDS011;3433;48.730;9.108;2022-11-20T08:32:52;2.47;;;2.27;;
6791;SDS011;3433;48.730;9.108;2022-11-20T08:35:21;3.90;;;2.13;;
6791;SDS011;3433;48.730;9.108;2022-11-20T08:37:48;2.53;;;2.33;;
6791;SDS011;3433;48.730;9.108;2022-11-20T08:40:15;2.80;;;2.10;;
6791;SDS011;3433;48.730;9.108;2022-11-20T08:42:46;3.00;;;2.37;;
6791;SDS011;3433;48.730;9.108;2022-11-20T08:45:13;2.43;;;2.03;;
6791;SDS011;3433;48.730;9.108;2022-11-20T08:47:40;2.97;;;2.53;;
6791;SDS011;3433;48.730;9.108;2022-11-20T08:50:08;2.13;;;1.87;;
6791;SDS011;3433;48.730;9.108;2022-11-20T08:52:37;3.67;;;1.83;;
6791;SDS011;3433;48.730;9.108;2022-11-20T08:55:04;2.80;;;2.00;;
6791;SDS011;3433;48.730;9.108;2022-11-20T08:57:32;1.87;;;1.77;;
6791;SDS011;3433;48.730;9.108;2022-11-20T09:00:00;3.70;;;1.90;;
6791;SDS011;3433;48.730;9.108;2022-11-20T09:02:27;2.70;;;1.80;;
6791;SDS011;3433;48.730;9.108;2022-11-20T09:04:54;1.60;;;1.50;;
6791;SDS011;3433;48.730;9.108;2022-11-20T09:07:21;2.00;;;1.90;;
6791;SDS011;3433;48.730;9.108;2022-11-20T09:09:50;3.17;;;1.97;;
6791;SDS011;3433;48.730;9.108;2022-11-20T09:12:17;1.90;;;1.80;;
6791;SDS011;3433;48.730;9.108;2022-11-20T09:14:43;1.60;;;1.50;;
6791;SDS011;3433;48.730;9.108;2022-11-20T09:17:11;2.77;;;2.13;;
6791;SDS011;3433;48.730;9.108;2022-11-20T09:19:39;1.80;;;1.40;;
6791;SDS011;3433;48.730;9.108;2022-11-20T09:22:06;1.73;;;1.53;;
6791;SDS011;3433;48.730;9.108;2022-11-20T09:24:34;2.13;;;1.93;;
6791;SDS011;3433;48.730;9.108;2022-11-20T09:27:02;2.00;;;1.50;;
6791;SDS011;3433;48.730;9.108;2022-11-20T09:29:30;1.80;;;1.53;;
6791;SDS011;3433;48.730;9.108;2022-11-20T09:31:57;7.70;;;1.40;;
6791;SDS011;3433;48.730;9.108;2022-11-20T09:34:24;1.47;;;1.37;;
6791;SDS011;3433;48.730;9.108;2022-11-20T09:36:51;1.83;;;1.40;;
6791;SDS011;3433;48.730;9.108;2022-11-20T09:39:18;1.43;;;1.30;;
6791;SDS011;3433;48.730;9.108;2022-11-20T09:41:53;1.70;;;1.47;;
6791;SDS011;3433;48.730;9.108;2022-11-20T09:44:35;1.70;;;1.37;;
6791;SDS011;3433;48.730;9.108;2022-11-20T09:47:12;1.53;;;1.40;;
6791;SDS011;3433;48.730;9.108;2022-11-20T09:49:55;1.10;;;1.00;;
6791;SDS011;3433;48.730;9.108;2022-11-20T09:52:36;1.20;;;1.10;;
6791;SDS011;3433;48.730;9.108;2022-11-20T09:55:10;1.40;;;1.30;;
6791;SDS011;3433;48.730;9.108;2022-11-20T09:57:40;1.23;;;0.90;;
6791;SDS011;3433;48.730;9.108;2022-11-20T10:00:12;1.17;;;1.07;;
6791;SDS011;3433;48.730;9.108;2022-11-20T10:02:42;0.97;;;0.97;;
6791;SDS011;3433;48.730;9.108;2022-11-20T10:05:15;1.40;;;0.90;;
6791;SDS011;3433;48.730;9.108;2022-11-20T10:07:47;1.10;;;1.00;;
6791;SDS011;3433;48.730;9.108;2022-11-20T10:10:36;2.17;;;1.03;;
6791;SDS011;3433;48.730;9.108;2022-11-20T10:13:13;1.13;;;1.00;;
6791;SDS011;3433;48.730;9.108;2022-11-20T10:15:51;2.30;;;1.20;;
6791;SDS011;3433;48.730;9.108;2022-11-20T10:18:28;1.00;;;0.97;;
6791;SDS011;3433;48.730;9.108;2022-11-20T10:21:07;1.77;;;1.00;;
6791;SDS011;3433;48.730;9.108;2022-11-20T10:23:47;1.97;;;1.57;;
6791;SDS011;3433;48.730;9.108;2022-11-20T10:26:29;1.53;;;1.17;;
6791;SDS011;3433;48.730;9.108;2022-11-20T10:29:07;1.00;;;0.90;;
6791;SDS011;3433;48.730;9.108;2022-11-20T10:31:40;1.20;;;1.10;;
6791;SDS011;3433;48.730;9.108;2022-11-20T10:34:18;1.33;;;1.23;;
6791;SDS011;3433;48.730;9.108;2022-11-20T10:36:50;2.30;;;1.97;;
6791;SDS011;3433;48.730;9.108;2022-11-20T10:39:23;2.30;;;1.17;;
6791;SDS011;3433;48.730;9.108;2022-11-20T10:41:56;2.20;;;1.40;;
6791;SDS011;3433;48.730;9.108;2022-11-20T10:44:26;1.77;;;1.53;;
6791;SDS011;3433;48.730;9.108;2022-11-20T10:47:13;1.37;;;1.27;;
6791;SDS011;3433;48.730;9.108;2022-11-20T10:49:42;2.27;;;2.07;;
6791;SDS011;3433;48.730;9.108;2022-11-20T10:52:13;2.40;;;1.17;;
6791;SDS011;3433;48.730;9.108;2022-11-20T10:54:47;1.20;;;1.10;;
6791;SDS011;3433;48.730;9.108;2022-11-20T10:57:24;1.00;;;0.93;;
6791;SDS011;3433;48.730;9.108;2022-11-20T11:00:02;1.17;;;1.00;;
6791;SDS011;3433;48.730;9.108;2022-11-20T11:02:34;1.43;;;1.33;;
6791;SDS011;3433;48.730;9.108;2022-11-20T11:05:08;2.50;;;1.43;;
6791;SDS011;3433;48.730;9.108;2022-11-20T11:07:42;2.97;;;2.07;;
6791;SDS011;3433;48.730;9.108;2022-11-20T11:10:13;3.53;;;2.60;;
6791;SDS011;3433;48.730;9.108;2022-11-20T11:12:43;2.47;;;1.80;;
6791;SDS011;3433;48.730;9.108;2022-11-20T11:15:13;2.07;;;1.83;;
6791;SDS011;3433;48.730;9.108;2022-11-20T11:17:52;1.70;;;1.60;;
6791;SDS011;3433;48.730;9.108;2022-11-20T11:20:20;1.80;;;1.70;;
6791;SDS011;3433;48.730;9.108;2022-11-20T11:22:49;2.60;;;2.40;;
6791;SDS011;3433;48.730;9.108;2022-11-20T11:25:18;2.17;;;1.97;;
6791;SDS011;3433;48.730;9.108;2022-11-20T11:27:56;1.50;;;1.40;;
6791;SDS011;3433;48.730;9.108;2022-11-20T11:30:26;4.90;;;1.93;;
6791;SDS011;3433;48.730;9.108;2022-11-20T11:33:06;4.07;;;2.00;;
6791;SDS011;3433;48.730;9.108;2022-11-20T11:35:39;1.80;;;1.67;;
6791;SDS011;3433;48.730;9.108;2022-11-20T11:38:12;2.13;;;1.93;;
6791;SDS011;3433;48.730;9.108;2022-11-20T11:40:43;5.53;;;2.10;;
6791;SDS011;3433;48.730;9.108;2022-11-20T11:43:16;2.00;;;1.80;;
6791;SDS011;3433;48.730;9.108;2022-11-20T11:46:04;2.17;;;1.50;;
6791;SDS011;3433;48.730;9.108;2022-11-20T11:48:55;2.97;;;1.80;;
6791;SDS011;3433;48.730;9.108;2022-11-20T11:51:24;7.60;;;2.23;;
6791;SDS011;3433;48.730;9.108;2022-11-20T11:53:56;3.90;;;2.20;;
6791;SDS011;3433;48.730;9.108;2022-11-20T11:56:27;3.27;;;2.00;;
6791;SDS011;3433;48.730;9.108;2022-11-20T11:58:56;1.67;;;1.50;;
6791;SDS011;3433;48.730;9.108;2022-11-20T12:01:29;3.10;;;1.30;;
6791;SDS011;3433;48.730;9.108;2022-11-20T12:04:04;3.10;;;1.50;;
6791;SDS011;3433;48.730;9.108;2022-11-20T12:06:37;5.20;;;1.30;;
6791;SDS011;3433;48.730;9.108;2022-11-20T12:09:09;1.50;;;1.07;;
6791;SDS011;3433;48.730;9.108;2022-11-20T12:11:38;2.93;;;1.27;;
6791;SDS011;3433;48.730;9.108;2022-11-20T12:14:32;3.20;;;1.20;;
6791;SDS011;3433;48.730;9.108;2022-11-20T12:17:20;2.10;;;1.10;;
6791;SDS011;3433;48.730;9.108;2022-11-20T12:19:48;1.60;;;1.47;;
6791;SDS011;3433;48.730;9.108;2022-11-20T12:22:18;1.90;;;0.97;;
6791;SDS011;3433;48.730;9.108;2022-11-20T12:24:55;1.67;;;1.13;;
6791;SDS011;3433;48.730;9.108;2022-11-20T12:27:41;2.20;;;1.10;;
6791;SDS011;3433;48.730;9.108;2022-11-20T12:30:16;2.20;;;1.00;;
6791;SDS011;3433;48.730;9.108;2022-11-20T12:36:04;1.10;;;1.00;;
6791;SDS011;3433;48.730;9.108;2022-11-20T12:38:45;4.30;;;1.10;;
6791;SDS011;3433;48.730;9.108;2022-11-20T12:41:40;1.23;;;0.90;;
6791;SDS011;3433;48.730;9.108;2022-11-20T12:47:51;2.73;;;1.00;;
6791;SDS011;3433;48.730;9.108;2022-11-20T12:50:29;1.07;;;1.00;;
6791;SDS011;3433;48.730;9.108;2022-11-20T12:53:05;1.30;;;0.90;;
6791;SDS011;3433;48.730;9.108;2022-11-20T12:55:45;3.63;;;1.00;;
6791;SDS011;3433;48.730;9.108;2022-11-20T12:58:17;2.50;;;1.33;;
6791;SDS011;3433;48.730;9.108;2022-11-20T13:00:54;1.87;;;0.97;;
6791;SDS011;3433;48.730;9.108;2022-11-20T13:03:39;1.93;;;0.93;;
6791;SDS011;3433;48.730;9.108;2022-11-20T13:06:13;2.50;;;1.00;;
6791;SDS011;3433;48.730;9.108;2022-11-20T13:08:45;2.17;;;0.87;;
6791;SDS011;3433;48.730;9.108;2022-11-20T13:11:18;0.70;;;0.70;;
6791;SDS011;3433;48.730;9.108;2022-11-20T13:13:58;1.20;;;0.63;;
6791;SDS011;3433;48.730;9.108;2022-11-20T13:16:37;1.47;;;1.00;;
6791;SDS011;3433;48.730;9.108;2022-11-20T13:19:09;1.10;;;1.00;;
6791;SDS011;3433;48.730;9.108;2022-11-20T13:21:40;1.40;;;0.87;;
6791;SDS011;3433;48.730;9.108;2022-11-20T13:24:21;1.60;;;1.10;;
6791;SDS011;3433;48.730;9.108;2022-11-20T13:27:01;1.30;;;0.90;;
6791;SDS011;3433;48.730;9.108;2022-11-20T13:29:30;1.30;;;1.00;;
6791;SDS011;3433;48.730;9.108;2022-11-20T13:32:02;2.50;;;0.93;;
6791;SDS011;3433;48.730;9.108;2022-11-20T13:34:30;2.60;;;1.17;;
6791;SDS011;3433;48.730;9.108;2022-11-20T13:36:58;0.87;;;0.87;;
6791;SDS011;3433;48.730;9.108;2022-11-20T13:39:30;1.60;;;1.23;;
6791;SDS011;3433;48.730;9.108;2022-11-20T13:41:59;1.10;;;1.00;;
6791;SDS011;3433;48.730;9.108;2022-11-20T13:44:29;1.00;;;0.80;;
6791;SDS011;3433;48.730;9.108;2022-11-20T13:47:03;2.10;;;1.00;;
6791;SDS011;3433;48.730;9.108;2022-11-20T13:49:31;3.77;;;2.20;;
6791;SDS011;3433;48.730;9.108;2022-11-20T13:52:05;1.80;;;1.27;;
6791;SDS011;3433;48.730;9.108;2022-11-20T13:54:57;4.00;;;1.97;;
6791;SDS011;3433;48.730;9.108;2022-11-20T13:57:49;2.00;;;1.47;;
6791;SDS011;3433;48.730;9.108;2022-11-20T14:00:28;3.00;;;1.33;;
6791;SDS011;3433;48.730;9.108;2022-11-20T14:03:05;6.30;;;3.40;;
6791;SDS011;3433;48.730;9.108;2022-11-20T14:05:45;1.70;;;1.17;;
6791;SDS011;3433;48.730;9.108;2022-11-20T14:08:18;4.10;;;1.20;;
6791;SDS011;3433;48.730;9.108;2022-11-20T14:11:01;1.97;;;1.33;;
6791;SDS011;3433;48.730;9.108;2022-11-20T14:13:29;2.80;;;1.00;;
6791;SDS011;3433;48.730;9.108;2022-11-20T14:15:57;2.80;;;1.30;;
6791;SDS011;3433;48.730;9.108;2022-11-20T14:18:25;4.10;;;1.30;;
6791;SDS011;3433;48.730;9.108;2022-11-20T14:20:52;1.17;;;0.87;;
6791;SDS011;3433;48.730;9.108;2022-11-20T14:23:23;1.63;;;0.93;;
6791;SDS011;3433;48.730;9.108;2022-11-20T14:25:53;4.93;;;1.30;;
6791;SDS011;3433;48.730;9.108;2022-11-20T14:28:23;1.27;;;1.10;;
6791;SDS011;3433;48.730;9.108;2022-11-20T14:30:52;2.40;;;1.20;;
6791;SDS011;3433;48.730;9.108;2022-11-20T14:33:21;2.27;;;1.40;;
6791;SDS011;3433;48.730;9.108;2022-11-20T14:35:51;1.43;;;1.07;;
6791;SDS011;3433;48.730;9.108;2022-11-20T14:38:21;1.57;;;1.20;;
6791;SDS011;3433;48.730;9.108;2022-11-20T14:40:51;1.50;;;1.33;;
6791;SDS011;3433;48.730;9.108;2022-11-20T14:43:21;3.23;;;1.00;;
6791;SDS011;3433;48.730;9.108;2022-11-20T14:45:52;1.20;;;1.10;;
6791;SDS011;3433;48.730;9.108;2022-11-20T14:48:25;1.47;;;1.23;;
6791;SDS011;3433;48.730;9.108;2022-11-20T14:50:57;2.13;;;1.33;;
6791;SDS011;3433;48.730;9.108;2022-11-20T14:53:24;1.80;;;1.23;;
6791;SDS011;3433;48.730;9.108;2022-11-20T14:55:55;4.00;;;1.60;;
6791;SDS011;3433;48.730;9.108;2022-11-20T14:58:26;2.80;;;1.90;;
6791;SDS011;3433;48.730;9.108;2022-11-20T15:00:54;1.67;;;1.50;;
6791;SDS011;3433;48.730;9.108;2022-11-20T15:03:22;2.97;;;1.87;;
6791;SDS011;3433;48.730;9.108;2022-11-20T15:05:50;3.27;;;1.50;;
6791;SDS011;3433;48.730;9.108;2022-11-20T15:08:17;3.27;;;2.03;;
6791;SDS011;3433;48.730;9.108;2022-11-20T15:10:45;1.80;;;1.40;;
6791;SDS011;3433;48.730;9.108;2022-11-20T15:13:14;3.00;;;1.93;;
6791;SDS011;3433;48.730;9.108;2022-11-20T15:15:45;2.73;;;1.70;;
6791;SDS011;3433;48.730;9.108;2022-11-20T15:18:15;4.63;;;2.10;;
6791;SDS011;3433;48.730;9.108;2022-11-20T15:20:44;2.17;;;1.97;;
6791;SDS011;3433;48.730;9.108;2022-11-20T15:23:12;2.17;;;1.60;;
6791;SDS011;3433;48.730;9.108;2022-11-20T15:25:40;3.37;;;2.30;;
6791;SDS011;3433;48.730;9.108;2022-11-20T15:28:12;2.97;;;2.20;;
6791;SDS011;3433;48.730;9.108;2022-11-20T15:30:44;3.03;;;2.47;;
6791;SDS011;3433;48.730;9.108;2022-11-20T15:33:12;6.97;;;4.03;;
6791;SDS011;3433;48.730;9.108;2022-11-20T15:35:39;2.80;;;1.80;;
6791;SDS011;3433;48.730;9.108;2022-11-20T15:38:06;2.33;;;2.10;;
6791;SDS011;3433;48.730;9.108;2022-11-20T15:40:33;2.73;;;2.40;;
6791;SDS011;3433;48.730;9.108;2022-11-20T15:43:00;2.93;;;2.60;;
6791;SDS011;3433;48.730;9.108;2022-11-20T15:45:32;3.57;;;2.53;;